createdAt,value
2019-04-28T00:01:15.542Z,97.70
2019-04-28T00:03:45.429Z,97.70
2019-04-28T00:06:13.262Z,97.70
2019-04-28T00:08:42.847Z,97.70
2019-04-28T00:11:12.492Z,97.90
2019-04-28T00:13:41.872Z,98.10
2019-04-28T00:16:16.312Z,97.90
2019-04-28T00:18:51.089Z,97.80
2019-04-28T00:21:34.563Z,97.80
2019-04-28T00:24:32.761Z,97.90
2019-04-28T00:27:04.020Z,98.00
2019-04-28T00:29:41.175Z,97.80
2019-04-28T00:32:08.484Z,97.80
2019-04-28T00:34:41.214Z,97.70
2019-04-28T00:37:24.514Z,97.70
2019-04-28T00:40:05.321Z,97.80
2019-04-28T00:42:36.306Z,97.90
2019-04-28T00:45:08.182Z,98.00
2019-04-28T00:47:43.797Z,98.60
2019-04-28T00:50:13.530Z,98.20
2019-04-28T00:52:42.398Z,98.20
2019-04-28T00:55:11.696Z,98.20
2019-04-28T00:57:40.981Z,98.00
2019-04-28T01:00:15.391Z,98.10
2019-04-28T01:02:47.257Z,98.10
2019-04-28T01:05:16.340Z,98.50
2019-04-28T01:07:45.466Z,98.20
2019-04-28T01:10:14.481Z,98.20
2019-04-28T01:12:42.974Z,98.40
2019-04-28T01:15:13.243Z,98.20
2019-04-28T01:17:43.322Z,97.90
2019-04-28T01:20:14.596Z,97.80
2019-04-28T01:22:43.257Z,98.10
2019-04-28T01:25:12.226Z,97.40
2019-04-28T01:27:42.709Z,97.70
2019-04-28T01:30:15.451Z,97.70
2019-04-28T01:32:50.898Z,97.70
2019-04-28T01:35:21.000Z,97.80
2019-04-28T01:37:50.549Z,98.00
2019-04-28T01:40:20.546Z,98.10
2019-04-28T01:42:49.956Z,98.20
2019-04-28T01:45:20.606Z,98.00
2019-04-28T01:47:50.384Z,98.00
2019-04-28T01:50:20.269Z,97.80
2019-04-28T01:52:49.633Z,98.10
2019-04-28T01:55:19.519Z,98.10
2019-04-28T01:57:49.745Z,98.10
2019-04-28T02:00:25.058Z,98.20
2019-04-28T02:02:50.539Z,98.00
2019-04-28T02:05:19.696Z,98.10
2019-04-28T02:07:50.469Z,98.00
2019-04-28T02:10:20.216Z,98.10
2019-04-28T02:12:50.369Z,98.10
2019-04-28T02:15:20.203Z,98.40
2019-04-28T02:17:50.033Z,98.00
2019-04-28T02:20:20.259Z,97.50
2019-04-28T02:22:51.491Z,97.40
2019-04-28T02:25:21.410Z,97.90
2019-04-28T02:27:50.030Z,98.20
2019-04-28T02:30:20.284Z,98.30
2019-04-28T02:32:51.486Z,97.90
2019-04-28T02:35:18.150Z,98.00
2019-04-28T02:37:46.572Z,98.10
2019-04-28T02:40:15.003Z,97.50
2019-04-28T02:42:43.511Z,97.30
2019-04-28T02:45:13.125Z,97.50
2019-04-28T02:47:42.414Z,97.40
2019-04-28T02:50:21.078Z,97.30
2019-04-28T02:52:53.712Z,97.50
2019-04-28T02:55:22.260Z,97.10
2019-04-28T02:57:51.660Z,96.80
2019-04-28T03:00:21.606Z,97.10
2019-04-28T03:02:51.355Z,97.40
2019-04-28T03:05:21.677Z,97.30
2019-04-28T03:07:51.510Z,97.60
2019-04-28T03:10:21.324Z,97.50
2019-04-28T03:12:51.634Z,97.50
2019-04-28T03:15:21.655Z,97.20
2019-04-28T03:17:52.956Z,97.50
2019-04-28T03:20:21.346Z,97.50
2019-04-28T03:22:51.204Z,97.00
2019-04-28T03:25:25.759Z,97.00
2019-04-28T03:28:12.219Z,97.20
2019-04-28T03:31:03.313Z,97.00
2019-04-28T03:33:34.499Z,97.20
2019-04-28T03:36:03.721Z,97.80
2019-04-28T03:38:31.415Z,97.90
2019-04-28T03:41:01.073Z,97.70
2019-04-28T03:43:30.618Z,97.90
2019-04-28T03:46:03.555Z,98.10
2019-04-28T03:48:33.720Z,98.10
2019-04-28T03:51:01.882Z,98.30
2019-04-28T03:53:31.209Z,97.90
2019-04-28T03:56:01.566Z,98.00
2019-04-28T03:58:31.331Z,98.20
2019-04-28T04:01:02.957Z,98.20
2019-04-28T04:03:30.886Z,98.40
2019-04-28T04:06:00.734Z,98.30
2019-04-28T04:08:30.901Z,97.70
2019-04-28T04:11:02.006Z,97.50
2019-04-28T04:13:37.953Z,97.70
2019-04-28T04:16:11.955Z,98.00
2019-04-28T04:18:45.459Z,98.10
2019-04-28T04:21:35.164Z,97.90
2019-04-28T04:24:13.960Z,97.70
2019-04-28T04:26:51.847Z,97.90
2019-04-28T04:29:36.325Z,98.00
2019-04-28T04:39:02.674Z,97.10
2019-04-28T04:41:43.765Z,97.50
2019-04-28T04:44:37.890Z,97.90
2019-04-28T04:47:01.114Z,97.30
2019-04-28T04:49:31.571Z,97.30
2019-04-28T04:52:00.543Z,97.40
2019-04-28T04:54:32.068Z,97.60
2019-04-28T04:57:11.353Z,98.00
2019-04-28T04:59:40.115Z,98.00
2019-04-28T05:02:28.339Z,97.70
2019-04-28T05:04:45.611Z,97.80
2019-04-28T05:07:14.462Z,97.70
2019-04-28T05:09:43.717Z,97.50
2019-04-28T05:12:13.296Z,97.70
2019-04-28T05:14:44.763Z,97.80
2019-04-28T05:17:13.779Z,97.20
2019-04-28T05:19:47.544Z,97.40
2019-04-28T05:22:20.122Z,97.60
2019-04-28T05:24:54.291Z,97.70
2019-04-28T05:27:25.642Z,96.20
2019-04-28T05:29:56.822Z,96.70
2019-04-28T05:32:25.785Z,96.60
2019-04-28T05:34:54.960Z,96.60
2019-04-28T05:37:24.423Z,96.80
2019-04-28T05:42:36.259Z,96.80
2019-04-28T05:45:10.264Z,96.90
2019-04-28T05:47:40.656Z,97.00
2019-04-28T05:50:12.673Z,96.50
2019-04-28T05:53:00.549Z,96.70
2019-04-28T05:55:47.659Z,96.70
2019-04-28T05:58:19.765Z,96.60
2019-04-28T06:01:00.404Z,96.40
2019-04-28T06:03:30.817Z,96.20
2019-04-28T06:06:03.770Z,96.10
2019-04-28T06:08:46.614Z,96.50
2019-04-28T06:11:39.643Z,96.50
2019-04-28T06:14:10.000Z,96.40
2019-04-28T06:16:40.742Z,96.70
2019-04-28T06:19:10.255Z,96.40
2019-04-28T06:21:43.814Z,96.30
2019-04-28T06:27:11.223Z,96.30
2019-04-28T06:29:50.413Z,95.90
2019-04-28T06:32:19.792Z,96.00
2019-04-28T06:34:48.141Z,96.10
2019-04-28T06:37:16.861Z,95.80
2019-04-28T06:39:47.285Z,96.10
2019-04-28T06:42:15.619Z,96.00
2019-04-28T06:44:45.531Z,96.20
2019-04-28T06:47:16.919Z,96.20
2019-04-28T06:49:49.266Z,96.40
2019-04-28T06:52:18.073Z,96.30
2019-04-28T06:54:47.510Z,95.70
2019-04-28T06:57:16.841Z,95.80
2019-04-28T06:59:48.581Z,96.20
2019-04-28T07:02:16.949Z,96.00
2019-04-28T07:04:47.863Z,96.00
2019-04-28T07:07:17.379Z,95.80
2019-04-28T07:09:45.778Z,96.10
2019-04-28T07:12:14.229Z,95.70
2019-04-28T07:14:43.091Z,95.60
2019-04-28T07:17:12.229Z,95.40
2019-04-28T07:19:46.507Z,95.60
2019-04-28T07:22:23.252Z,95.40
2019-04-28T07:24:52.578Z,95.40
2019-04-28T07:27:21.212Z,94.80
2019-04-28T07:29:49.744Z,95.60
2019-04-28T07:32:18.458Z,94.60
2019-04-28T07:34:47.001Z,95.20
2019-04-28T07:37:16.354Z,94.90
2019-04-28T07:39:46.655Z,95.60
2019-04-28T07:42:19.188Z,95.00
2019-04-28T07:44:48.937Z,95.40
2019-04-28T07:47:17.603Z,95.20
2019-04-28T07:49:46.245Z,94.50
2019-04-28T07:52:17.482Z,94.80
2019-04-28T07:54:46.230Z,94.60
2019-04-28T07:57:17.820Z,94.50
2019-04-28T07:59:46.628Z,94.60
2019-04-28T08:02:18.176Z,94.10
2019-04-28T08:04:46.658Z,94.80
2019-04-28T08:07:15.104Z,94.20
2019-04-28T08:09:43.667Z,94.10
2019-04-28T08:12:12.385Z,93.80
2019-04-28T08:14:42.242Z,94.00
2019-04-28T08:17:15.549Z,94.20
2019-04-28T08:19:47.294Z,93.90
2019-04-28T08:22:17.129Z,94.10
2019-04-28T08:24:45.936Z,93.40
2019-04-28T08:27:14.906Z,93.90
2019-04-28T08:29:44.862Z,94.00
2019-04-28T08:32:30.745Z,93.90
2019-04-28T08:35:03.134Z,93.70
2019-04-28T08:37:36.834Z,93.80
2019-04-28T08:40:10.638Z,93.40
2019-04-28T08:42:39.177Z,93.20
2019-04-28T08:45:10.546Z,93.30
2019-04-28T08:47:39.827Z,93.60
2019-04-28T08:50:15.949Z,94.00
2019-04-28T08:52:45.854Z,93.50
2019-04-28T08:55:15.331Z,93.20
2019-04-28T08:57:45.441Z,93.30
2019-04-28T09:00:19.002Z,93.20
2019-04-28T09:02:48.340Z,93.30
2019-04-28T09:05:21.726Z,92.90
2019-04-28T09:07:52.101Z,93.40
2019-04-28T09:10:20.532Z,93.10
2019-04-28T09:12:49.335Z,93.30
2019-04-28T09:15:18.319Z,93.40
2019-04-28T09:17:47.769Z,92.20
2019-04-28T09:20:17.296Z,92.60
2019-04-28T09:22:46.374Z,92.80
2019-04-28T09:25:14.963Z,92.70
2019-04-28T09:27:43.591Z,92.60
2019-04-28T09:30:13.827Z,92.20
2019-04-28T09:32:42.789Z,91.90
2019-04-28T09:35:13.446Z,91.50
2019-04-28T09:37:42.185Z,92.00
2019-04-28T09:40:12.413Z,92.30
2019-04-28T09:42:46.732Z,92.60
2019-04-28T09:45:20.537Z,92.40
2019-04-28T09:47:48.910Z,92.40
2019-04-28T09:50:17.428Z,92.30
2019-04-28T09:52:48.726Z,92.10
2019-04-28T09:55:16.835Z,92.20
2019-04-28T09:57:45.452Z,91.40
2019-04-28T10:00:14.688Z,92.00
2019-04-28T10:02:44.238Z,92.00
2019-04-28T10:05:12.835Z,92.40
2019-04-28T10:07:41.206Z,91.70
2019-04-28T10:10:09.921Z,91.90
2019-04-28T10:12:38.317Z,92.00
2019-04-28T10:15:08.119Z,92.10
2019-04-28T10:17:37.632Z,91.30
2019-04-28T10:20:06.495Z,91.40
2019-04-28T10:22:35.295Z,91.40
2019-04-28T10:25:07.930Z,91.90
2019-04-28T10:27:36.578Z,91.50
2019-04-28T10:30:09.313Z,91.70
2019-04-28T10:32:38.107Z,92.10
2019-04-28T10:35:07.045Z,91.80
2019-04-28T10:37:35.974Z,91.80
2019-04-28T10:40:12.681Z,91.40
2019-04-28T10:42:41.212Z,91.60
2019-04-28T10:45:11.372Z,90.60
2019-04-28T10:47:39.841Z,90.70
2019-04-28T10:50:08.346Z,90.30
2019-04-28T10:52:36.966Z,90.00
2019-04-28T10:55:06.915Z,90.20
2019-04-28T10:57:35.020Z,90.70
2019-04-28T11:00:04.900Z,90.30
2019-04-28T11:02:34.170Z,90.70
2019-04-28T11:05:10.423Z,90.70
2019-04-28T11:07:38.935Z,91.20
2019-04-28T11:10:15.407Z,91.00
2019-04-28T11:12:46.007Z,92.00
2019-04-28T11:15:35.236Z,92.30
2019-04-28T11:18:05.711Z,92.40
2019-04-28T11:20:34.803Z,93.00
2019-04-28T11:23:03.737Z,92.70
2019-04-28T11:25:32.510Z,92.90
2019-04-28T11:28:01.693Z,92.90
2019-04-28T11:30:30.801Z,92.90
2019-04-28T11:33:00.839Z,93.00
2019-04-28T11:35:33.943Z,92.70
2019-04-28T11:38:02.483Z,93.10
2019-04-28T11:40:31.411Z,92.90
2019-04-28T11:43:00.423Z,93.20
2019-04-28T11:45:28.787Z,93.30
2019-04-28T11:47:57.431Z,93.30
2019-04-28T11:50:26.170Z,92.70
2019-04-28T11:52:54.949Z,93.60
2019-04-28T11:55:24.831Z,93.20
2019-04-28T11:57:53.356Z,93.60
2019-04-28T12:00:26.359Z,93.80
2019-04-28T12:02:55.367Z,94.10
2019-04-28T12:05:34.310Z,94.50
2019-04-28T12:07:56.691Z,94.80
2019-04-28T12:10:30.037Z,95.10
2019-04-28T12:13:00.818Z,95.30
2019-04-28T12:15:31.393Z,95.20
2019-04-28T12:18:04.662Z,94.80
2019-04-28T12:20:33.739Z,94.70
2019-04-28T12:23:02.666Z,94.50
2019-04-28T12:25:31.307Z,94.70
2019-04-28T12:27:59.810Z,94.50
2019-04-28T12:30:28.629Z,94.00
2019-04-28T12:32:57.477Z,94.50
2019-04-28T12:35:26.012Z,94.40
2019-04-28T12:37:55.135Z,94.40
2019-04-28T12:40:24.106Z,94.40
2019-04-28T12:42:53.275Z,94.60
2019-04-28T12:45:34.546Z,94.80
2019-04-28T12:47:52.497Z,95.10
2019-04-28T12:50:28.718Z,93.50
2019-04-28T12:52:58.003Z,93.50
2019-04-28T12:58:10.073Z,93.50
2019-04-28T13:00:40.293Z,92.80
2019-04-28T13:03:16.712Z,93.10
2019-04-28T13:06:01.598Z,92.40
2019-04-28T13:08:23.002Z,92.90
2019-04-28T13:10:52.554Z,92.70
2019-04-28T13:13:21.151Z,91.80
2019-04-28T13:15:49.523Z,92.10
2019-04-28T13:18:17.980Z,91.80
2019-04-28T13:20:46.283Z,91.80
2019-04-28T13:23:14.813Z,91.20
2019-04-28T13:25:45.093Z,91.80
2019-04-28T13:28:13.496Z,91.50
2019-04-28T13:30:41.921Z,91.40
2019-04-28T13:33:10.590Z,91.90
2019-04-28T13:35:39.452Z,92.40
2019-04-28T13:38:08.900Z,91.90
2019-04-28T13:40:41.591Z,91.50
2019-04-28T13:43:10.059Z,91.10
2019-04-28T13:45:38.511Z,91.70
2019-04-28T13:48:07.020Z,91.70
2019-04-28T13:50:37.272Z,91.90
2019-04-28T13:53:06.322Z,92.30
2019-04-28T13:55:36.718Z,92.10
2019-04-28T13:58:05.232Z,92.50
2019-04-28T14:00:41.217Z,91.80
2019-04-28T14:03:14.514Z,92.30
2019-04-28T14:05:44.988Z,92.10
2019-04-28T14:08:13.594Z,92.50
2019-04-28T14:10:42.197Z,92.20
2019-04-28T14:13:10.619Z,92.40
2019-04-28T14:15:38.929Z,92.90
2019-04-28T14:18:07.326Z,92.80
2019-04-28T14:20:35.686Z,93.20
2019-04-28T14:23:04.196Z,93.90
2019-04-28T14:25:32.587Z,93.80
2019-04-28T14:28:00.991Z,93.80
2019-04-28T14:30:30.145Z,93.60
2019-04-28T14:32:58.565Z,93.90
2019-04-28T14:35:26.912Z,93.40
2019-04-28T14:37:55.623Z,94.00
2019-04-28T14:40:24.100Z,94.40
2019-04-28T14:42:53.182Z,94.30
2019-04-28T14:45:21.503Z,94.40
2019-04-28T14:47:50.054Z,93.90
2019-04-28T14:50:27.639Z,94.30
2019-04-28T14:52:56.051Z,94.00
2019-04-28T14:55:24.418Z,94.50
2019-04-28T14:57:52.766Z,94.50
2019-04-28T15:00:28.803Z,93.60
2019-04-28T15:02:58.824Z,94.20
2019-04-28T15:05:31.434Z,93.90
2019-04-28T15:08:04.666Z,94.10
2019-04-28T15:10:40.781Z,93.50
2019-04-28T15:13:09.522Z,92.90
2019-04-28T15:15:40.389Z,92.60
2019-04-28T15:18:08.786Z,92.80
2019-04-28T15:20:37.439Z,93.10
2019-04-28T15:23:05.914Z,93.30
2019-04-28T15:25:34.395Z,93.20
2019-04-28T15:28:02.825Z,93.20
2019-04-28T15:30:32.054Z,93.20
2019-04-28T15:33:00.529Z,93.90
2019-04-28T15:35:29.967Z,93.60
2019-04-28T15:37:58.335Z,94.00
2019-04-28T15:40:26.791Z,94.50
2019-04-28T15:42:55.216Z,94.10
2019-04-28T15:45:23.690Z,94.80
2019-04-28T15:47:52.294Z,94.60
2019-04-28T15:50:20.664Z,94.60
2019-04-28T15:52:49.155Z,94.90
2019-04-28T15:55:28.198Z,95.20
2019-04-28T15:57:56.503Z,94.90
2019-04-28T16:00:24.879Z,95.00
2019-04-28T16:02:54.411Z,94.80
2019-04-28T16:05:23.215Z,94.60
2019-04-28T16:07:51.854Z,95.20
2019-04-28T16:10:20.390Z,95.30
2019-04-28T16:12:49.201Z,95.20
2019-04-28T16:15:17.767Z,95.20
2019-04-28T16:17:46.526Z,95.20
2019-04-28T16:20:15.679Z,95.00
2019-04-28T16:22:44.903Z,95.30
2019-04-28T16:25:13.504Z,94.80
2019-04-28T16:27:43.875Z,95.40
2019-04-28T16:30:12.343Z,95.50
2019-04-28T16:32:41.798Z,96.00
2019-04-28T16:35:10.643Z,96.10
2019-04-28T16:37:39.845Z,96.10
2019-04-28T16:40:09.805Z,96.40
2019-04-28T16:42:39.995Z,96.30
2019-04-28T16:45:08.015Z,96.60
2019-04-28T16:47:36.899Z,96.40
2019-04-28T16:50:08.411Z,96.40
2019-04-28T16:52:37.296Z,96.40
2019-04-28T16:55:15.710Z,96.50
2019-04-28T16:57:58.487Z,96.00
2019-04-28T17:00:29.049Z,96.40
2019-04-28T17:02:57.749Z,95.90
2019-04-28T17:05:26.488Z,96.40
2019-04-28T17:07:55.051Z,96.70
2019-04-28T17:10:24.110Z,96.20
2019-04-28T17:12:52.912Z,96.40
2019-04-28T17:15:21.369Z,96.30
2019-04-28T17:17:50.388Z,96.80
2019-04-28T17:20:18.730Z,97.00
2019-04-28T17:22:50.089Z,96.90
2019-04-28T17:25:17.814Z,96.50
2019-04-28T17:27:46.354Z,96.30
2019-04-28T17:30:15.337Z,96.80
2019-04-28T17:32:44.497Z,96.70
2019-04-28T17:35:13.487Z,96.80
2019-04-28T17:37:43.842Z,96.80
2019-04-28T17:40:13.316Z,96.90
2019-04-28T17:42:42.021Z,96.90
2019-04-28T17:45:10.856Z,97.10
2019-04-28T17:47:39.502Z,97.30
2019-04-28T17:50:09.001Z,97.20
2019-04-28T17:52:37.578Z,97.30
2019-04-28T17:55:06.276Z,97.50
2019-04-28T17:57:34.928Z,97.50
2019-04-28T18:00:06.623Z,97.60
2019-04-28T18:02:45.647Z,97.80
2019-04-28T18:05:15.683Z,97.70
2019-04-28T18:07:43.499Z,97.80
2019-04-28T18:10:12.768Z,97.80
2019-04-28T18:12:41.550Z,97.80
2019-04-28T18:15:11.607Z,97.90
2019-04-28T18:17:44.106Z,97.90
2019-04-28T18:20:12.606Z,97.80
2019-04-28T18:22:40.876Z,98.10
2019-04-28T18:25:13.320Z,98.20
2019-04-28T18:27:41.783Z,98.20
2019-04-28T18:30:11.941Z,98.30
2019-04-28T18:32:42.279Z,98.50
2019-04-28T18:35:15.219Z,98.40
2019-04-28T18:38:03.226Z,98.20
2019-04-28T18:40:42.379Z,98.40
2019-04-28T18:43:12.588Z,98.50
2019-04-28T18:45:41.300Z,98.50
2019-04-28T18:48:09.854Z,98.50
2019-04-28T18:50:39.093Z,98.50
2019-04-28T18:53:07.567Z,98.70
2019-04-28T18:55:41.767Z,98.60
2019-04-28T18:58:10.331Z,98.50
2019-04-28T19:00:42.460Z,98.60
2019-04-28T19:03:13.353Z,98.80
2019-04-28T19:05:43.474Z,98.70
2019-04-28T19:08:14.131Z,98.70
2019-04-28T19:10:56.319Z,98.60
2019-04-28T19:13:27.176Z,98.60
2019-04-28T19:16:16.031Z,98.70
2019-04-28T19:18:52.354Z,98.70
2019-04-28T19:21:20.999Z,98.70
2019-04-28T19:23:49.838Z,98.70
2019-04-28T19:26:22.320Z,98.60
2019-04-28T19:28:50.990Z,98.60
2019-04-28T19:31:19.970Z,98.80
2019-04-28T19:33:48.935Z,98.80
2019-04-28T19:36:17.337Z,98.80
2019-04-28T19:38:46.967Z,99.00
2019-04-28T19:41:15.378Z,99.00
2019-04-28T19:43:44.822Z,99.00
2019-04-28T19:46:15.559Z,99.10
2019-04-28T19:48:44.608Z,99.20
2019-04-28T19:51:16.596Z,99.20
2019-04-28T19:53:45.918Z,99.10
2019-04-28T19:56:18.655Z,99.00
2019-04-28T19:58:55.217Z,99.10
2019-04-28T20:01:25.309Z,99.00
2019-04-28T20:03:54.264Z,99.00
2019-04-28T20:06:22.868Z,99.00
2019-04-28T20:08:55.971Z,99.00
2019-04-28T20:11:24.872Z,98.90
2019-04-28T20:13:54.923Z,99.10
2019-04-28T20:16:25.188Z,99.30
2019-04-28T20:19:00.197Z,99.30
2019-04-28T20:21:28.924Z,99.40
2019-04-28T20:23:57.478Z,99.20
2019-04-28T20:26:26.887Z,99.30
2019-04-28T20:28:55.597Z,99.20
2019-04-28T20:31:25.942Z,99.40
2019-04-28T20:33:54.683Z,99.50
2019-04-28T20:36:24.865Z,99.60
2019-04-28T20:38:55.112Z,99.60
2019-04-28T20:41:26.691Z,99.70
2019-04-28T20:43:57.618Z,99.60
2019-04-28T20:46:26.976Z,99.60
2019-04-28T20:48:55.776Z,99.50
2019-04-28T20:51:24.996Z,99.60
2019-04-28T20:53:55.147Z,99.50
2019-04-28T20:56:24.253Z,99.70
2019-04-28T20:58:55.871Z,99.50
2019-04-28T21:01:25.013Z,99.80
2019-04-28T21:03:54.727Z,99.70
2019-04-28T21:06:23.565Z,99.70
2019-04-28T21:08:54.769Z,99.80
2019-04-28T21:11:24.213Z,99.80
2019-04-28T21:13:55.268Z,99.70
2019-04-28T21:16:23.603Z,99.80
2019-04-28T21:18:52.007Z,99.60
2019-04-28T21:21:20.527Z,99.70
2019-04-28T21:23:56.472Z,99.70
2019-04-28T21:26:29.928Z,99.70
2019-04-28T21:29:03.398Z,99.50
2019-04-28T21:31:36.715Z,99.60
2019-04-28T21:34:16.670Z,99.60
2019-04-28T21:36:43.821Z,99.70
2019-04-28T21:39:13.899Z,99.80
2019-04-28T21:41:42.596Z,99.80
2019-04-28T21:44:22.167Z,99.80
2019-04-28T21:46:55.577Z,99.70
2019-04-28T21:49:25.895Z,99.50
2019-04-28T21:51:54.553Z,99.40
2019-04-28T21:54:25.295Z,99.60
2019-04-28T21:56:56.307Z,99.90
2019-04-28T21:59:25.115Z,99.90
2019-04-28T22:01:53.636Z,99.90
2019-04-28T22:04:23.858Z,99.90
2019-04-28T22:06:52.669Z,99.90
2019-04-28T22:09:22.171Z,99.70
2019-04-28T22:11:50.687Z,99.80
2019-04-28T22:14:19.358Z,99.90
2019-04-28T22:16:50.677Z,99.90
2019-04-28T22:19:22.623Z,99.90
2019-04-28T22:21:51.406Z,99.90
2019-04-28T22:24:34.554Z,99.90
2019-04-28T22:27:02.975Z,99.90
2019-04-28T22:29:31.897Z,99.90
2019-04-28T22:32:00.736Z,99.90
2019-04-28T22:34:29.989Z,99.90
2019-04-28T22:36:58.580Z,99.90
2019-04-28T22:39:34.818Z,99.90
2019-04-28T22:42:04.615Z,99.90
2019-04-28T22:44:35.261Z,99.90
2019-04-28T22:47:03.718Z,99.90
2019-04-28T22:49:35.696Z,99.90
2019-04-28T22:52:07.309Z,99.90
2019-04-28T22:54:40.745Z,99.90
2019-04-28T22:57:11.099Z,99.90
2019-04-28T22:59:41.364Z,99.90
2019-04-28T23:02:11.602Z,99.90
2019-04-28T23:04:50.848Z,99.90
2019-04-28T23:07:55.523Z,99.90
2019-04-28T23:10:24.185Z,99.90
2019-04-28T23:12:52.946Z,99.90
2019-04-28T23:15:21.377Z,99.90
2019-04-28T23:17:50.398Z,99.90
2019-04-28T23:20:18.880Z,99.90
2019-04-28T23:22:49.554Z,99.90
2019-04-28T23:25:18.449Z,99.90
2019-04-28T23:27:46.919Z,99.90
2019-04-28T23:30:33.814Z,99.90
2019-04-28T23:33:04.506Z,99.90
2019-04-28T23:35:33.175Z,99.90
2019-04-28T23:38:01.449Z,99.90
2019-04-28T23:40:29.913Z,99.90
2019-04-28T23:43:00.134Z,99.90
2019-04-28T23:45:28.643Z,99.90
2019-04-28T23:47:56.981Z,99.90
2019-04-28T23:50:38.970Z,99.90
2019-04-28T23:53:11.907Z,99.90
2019-04-28T23:55:40.703Z,99.90
2019-04-28T23:58:09.042Z,99.90
